createdAt,value
2018-07-08T00:00:53.223Z,20.94
2018-07-08T00:03:22.292Z,20.93
2018-07-08T00:05:51.472Z,20.93
2018-07-08T00:08:20.548Z,20.87
2018-07-08T00:10:57.833Z,20.83
2018-07-08T00:13:27.020Z,20.76
2018-07-08T00:15:56.116Z,20.58
2018-07-08T00:18:25.794Z,20.56
2018-07-08T00:20:55.777Z,20.51
2018-07-08T00:23:25.479Z,20.45
2018-07-08T00:25:54.586Z,20.48
2018-07-08T00:28:23.713Z,20.47
2018-07-08T00:30:52.863Z,20.56
2018-07-08T00:33:22.065Z,20.49
2018-07-08T00:35:51.173Z,20.31
2018-07-08T00:38:20.255Z,20.03
2018-07-08T00:40:49.397Z,20.00
2018-07-08T00:43:18.766Z,20.08
2018-07-08T00:45:47.909Z,20.17
2018-07-08T00:48:17.022Z,20.25
2018-07-08T00:50:46.250Z,20.27
2018-07-08T00:53:15.439Z,20.25
2018-07-08T00:55:44.540Z,20.12
2018-07-08T00:58:13.749Z,20.16
2018-07-08T01:00:43.031Z,20.09
2018-07-08T01:03:12.160Z,17.07
2018-07-08T01:05:41.291Z,16.04
2018-07-08T01:08:10.349Z,20.09
2018-07-08T01:10:39.536Z,20.17
2018-07-08T01:13:08.651Z,20.10
2018-07-08T01:15:37.777Z,20.13
2018-07-08T01:18:06.969Z,20.10
2018-07-08T01:20:36.019Z,20.04
2018-07-08T01:23:05.194Z,20.10
2018-07-08T01:25:45.587Z,19.80
2018-07-08T01:28:14.733Z,19.84
2018-07-08T01:30:43.950Z,19.59
2018-07-08T01:33:13.148Z,19.42
2018-07-08T01:35:42.617Z,19.44
2018-07-08T01:38:11.765Z,19.55
2018-07-08T01:40:40.972Z,19.43
2018-07-08T01:43:10.157Z,19.45
2018-07-08T01:45:39.282Z,19.34
2018-07-08T01:48:08.401Z,19.32
2018-07-08T01:50:37.548Z,19.33
2018-07-08T01:53:06.626Z,19.34
2018-07-08T01:55:35.717Z,19.00
2018-07-08T01:58:05.149Z,18.92
2018-07-08T02:00:34.261Z,18.93
2018-07-08T02:03:03.403Z,18.93
2018-07-08T02:05:32.961Z,18.58
2018-07-08T02:08:02.057Z,18.66
2018-07-08T02:10:31.135Z,18.79
2018-07-08T02:13:00.303Z,18.73
2018-07-08T02:15:29.403Z,18.72
2018-07-08T02:17:58.518Z,18.83
2018-07-08T02:20:27.593Z,18.62
2018-07-08T02:22:57.197Z,18.52
2018-07-08T02:25:26.732Z,18.53
2018-07-08T02:27:55.820Z,18.45
2018-07-08T02:30:24.892Z,18.46
2018-07-08T02:32:54.174Z,18.49
2018-07-08T02:35:23.623Z,18.56
2018-07-08T02:37:52.735Z,18.51
2018-07-08T02:40:21.834Z,18.54
2018-07-08T02:42:50.986Z,18.56
2018-07-08T02:45:20.110Z,18.47
2018-07-08T02:47:49.642Z,18.19
2018-07-08T02:50:18.764Z,18.06
2018-07-08T02:52:47.925Z,18.17
2018-07-08T02:55:17.680Z,18.25
2018-07-08T02:57:46.741Z,18.14
2018-07-08T03:00:15.817Z,18.13
2018-07-08T03:02:44.885Z,18.31
2018-07-08T03:05:14.058Z,18.38
2018-07-08T03:07:43.148Z,18.11
2018-07-08T03:10:12.248Z,18.24
2018-07-08T03:12:41.341Z,18.13
2018-07-08T03:15:10.486Z,18.16
2018-07-08T03:17:39.637Z,18.15
2018-07-08T03:20:08.753Z,18.09
2018-07-08T03:22:37.993Z,17.86
2018-07-08T03:25:07.137Z,17.80
2018-07-08T03:27:36.254Z,17.77
2018-07-08T03:30:05.349Z,17.75
2018-07-08T03:32:34.480Z,17.77
2018-07-08T03:35:03.586Z,17.72
2018-07-08T03:37:32.726Z,17.74
2018-07-08T03:40:01.836Z,17.66
2018-07-08T03:42:30.941Z,17.69
2018-07-08T03:44:59.996Z,17.74
2018-07-08T03:47:29.084Z,17.85
2018-07-08T03:49:58.193Z,17.84
2018-07-08T03:52:27.294Z,17.89
2018-07-08T03:54:56.383Z,17.85
2018-07-08T03:57:25.539Z,17.83
2018-07-08T03:59:54.659Z,17.78
2018-07-08T04:02:23.756Z,17.14
2018-07-08T04:04:52.812Z,17.52
2018-07-08T04:07:21.949Z,17.53
2018-07-08T04:09:51.038Z,17.38
2018-07-08T04:12:20.137Z,17.37
2018-07-08T04:14:49.183Z,17.48
2018-07-08T04:17:18.291Z,17.50
2018-07-08T04:19:47.374Z,17.58
2018-07-08T04:22:16.463Z,17.36
2018-07-08T04:24:45.606Z,17.36
2018-07-08T04:27:14.773Z,17.49
2018-07-08T04:29:43.881Z,17.52
2018-07-08T04:32:13.113Z,17.33
2018-07-08T04:34:42.220Z,17.42
2018-07-08T04:37:11.328Z,17.41
2018-07-08T04:39:40.804Z,17.41
2018-07-08T04:42:09.974Z,17.47
2018-07-08T04:44:39.090Z,17.69
2018-07-08T04:47:08.305Z,17.66
2018-07-08T04:49:37.548Z,17.98
2018-07-08T04:52:06.598Z,17.82
2018-07-08T04:54:35.722Z,17.75
2018-07-08T04:57:05.183Z,17.76
2018-07-08T04:59:34.376Z,17.76
2018-07-08T05:02:03.459Z,17.62
2018-07-08T05:04:32.671Z,17.66
2018-07-08T05:07:01.730Z,17.79
2018-07-08T05:09:30.861Z,17.89
2018-07-08T05:11:59.962Z,17.95
2018-07-08T05:14:29.154Z,18.03
2018-07-08T05:16:58.256Z,18.18
2018-07-08T05:19:27.490Z,18.24
2018-07-08T05:21:56.549Z,18.36
2018-07-08T05:24:25.638Z,18.38
2018-07-08T05:26:55.191Z,18.38
2018-07-08T05:29:24.367Z,18.46
2018-07-08T05:31:53.437Z,18.49
2018-07-08T05:34:22.632Z,18.69
2018-07-08T05:36:51.700Z,18.81
2018-07-08T05:39:20.824Z,18.91
2018-07-08T05:41:50.049Z,19.00
2018-07-08T05:44:19.264Z,18.95
2018-07-08T05:46:48.424Z,19.02
2018-07-08T05:49:17.820Z,19.11
2018-07-08T05:51:47.084Z,19.14
2018-07-08T05:54:16.177Z,19.19
2018-07-08T05:56:45.757Z,19.30
2018-07-08T05:59:14.847Z,19.44
2018-07-08T06:01:44.201Z,19.59
2018-07-08T06:04:13.297Z,19.76
2018-07-08T06:06:42.477Z,19.99
2018-07-08T06:09:11.589Z,20.00
2018-07-08T06:11:40.685Z,19.99
2018-07-08T06:14:09.820Z,20.07
2018-07-08T06:16:38.956Z,20.11
2018-07-08T06:19:08.049Z,19.97
2018-07-08T06:21:37.384Z,20.03
2018-07-08T06:24:06.439Z,20.20
2018-07-08T06:26:35.561Z,20.42
2018-07-08T06:29:04.810Z,20.38
2018-07-08T06:31:33.905Z,20.45
2018-07-08T06:34:03.260Z,20.28
2018-07-08T06:36:32.378Z,20.23
2018-07-08T06:39:01.521Z,20.32
2018-07-08T06:41:30.554Z,20.61
2018-07-08T06:43:59.693Z,20.61
2018-07-08T06:46:28.850Z,20.58
2018-07-08T06:48:57.987Z,20.92
2018-07-08T06:51:27.142Z,20.92
2018-07-08T06:53:56.283Z,20.68
2018-07-08T06:56:26.049Z,20.90
2018-07-08T06:58:55.156Z,20.85
2018-07-08T07:01:24.321Z,20.72
2018-07-08T07:03:53.456Z,20.93
2018-07-08T07:06:22.662Z,21.00
2018-07-08T07:08:51.777Z,21.20
2018-07-08T07:11:20.926Z,21.48
2018-07-08T07:13:50.129Z,21.66
2018-07-08T07:16:19.405Z,21.62
2018-07-08T07:18:48.515Z,21.84
2018-07-08T07:21:17.628Z,22.08
2018-07-08T07:23:47.391Z,22.13
2018-07-08T07:26:16.499Z,22.14
2018-07-08T07:28:45.670Z,22.08
2018-07-08T07:31:14.731Z,22.20
2018-07-08T07:33:43.887Z,22.46
2018-07-08T07:36:13.007Z,22.37
2018-07-08T07:38:42.098Z,22.22
2018-07-08T07:41:11.551Z,22.30
2018-07-08T07:43:41.216Z,22.23
2018-07-08T07:46:10.413Z,22.15
2018-07-08T07:48:39.514Z,22.38
2018-07-08T07:51:08.651Z,22.61
2018-07-08T07:53:37.880Z,22.90
2018-07-08T07:56:07.382Z,23.14
2018-07-08T07:58:36.494Z,23.07
2018-07-08T08:01:05.991Z,23.06
2018-07-08T08:03:35.058Z,22.88
2018-07-08T08:06:04.171Z,22.81
2018-07-08T08:08:33.279Z,23.04
2018-07-08T08:11:02.392Z,23.34
2018-07-08T08:13:31.505Z,23.53
2018-07-08T08:16:00.554Z,23.59
2018-07-08T08:18:29.663Z,23.61
2018-07-08T08:20:58.875Z,23.30
2018-07-08T08:23:28.041Z,23.18
2018-07-08T08:25:57.233Z,23.19
2018-07-08T08:28:26.364Z,23.40
2018-07-08T08:30:55.501Z,23.31
2018-07-08T08:33:25.039Z,23.65
2018-07-08T08:35:54.180Z,23.50
2018-07-08T08:38:23.264Z,23.62
2018-07-08T08:40:53.112Z,23.55
2018-07-08T08:43:22.363Z,23.71
2018-07-08T08:45:51.554Z,23.95
2018-07-08T08:48:20.690Z,23.71
2018-07-08T08:50:50.010Z,23.57
2018-07-08T08:53:19.102Z,23.81
2018-07-08T08:55:48.188Z,24.09
2018-07-08T08:58:17.367Z,24.33
2018-07-08T09:00:46.614Z,24.33
2018-07-08T09:03:15.810Z,24.38
2018-07-08T09:05:44.964Z,24.35
2018-07-08T09:08:14.061Z,24.44
2018-07-08T09:10:43.150Z,24.41
2018-07-08T09:13:12.363Z,24.29
2018-07-08T09:15:41.906Z,24.22
2018-07-08T09:18:11.134Z,24.30
2018-07-08T09:20:40.188Z,24.19
2018-07-08T09:23:09.356Z,24.33
2018-07-08T09:25:40.133Z,24.49
2018-07-08T09:28:09.329Z,24.86
2018-07-08T09:30:38.802Z,25.04
2018-07-08T09:33:07.966Z,24.30
2018-07-08T09:35:37.086Z,24.34
2018-07-08T09:38:06.922Z,24.66
2018-07-08T09:40:36.105Z,24.86
2018-07-08T09:43:05.748Z,24.78
2018-07-08T09:45:34.952Z,24.83
2018-07-08T09:48:04.147Z,25.17
2018-07-08T09:50:33.320Z,25.51
2018-07-08T09:53:03.368Z,25.80
2018-07-08T09:55:32.522Z,25.98
2018-07-08T09:58:01.639Z,25.66
2018-07-08T10:00:30.839Z,25.79
2018-07-08T10:02:59.947Z,25.65
2018-07-08T10:05:30.366Z,25.54
2018-07-08T10:07:59.425Z,25.70
2018-07-08T10:10:28.522Z,25.68
2018-07-08T10:12:57.678Z,25.63
2018-07-08T10:15:26.847Z,25.91
2018-07-08T10:17:56.010Z,26.03
2018-07-08T10:20:25.166Z,25.62
2018-07-08T10:22:54.346Z,25.65
2018-07-08T10:25:23.535Z,26.06
2018-07-08T10:28:24.398Z,26.18
2018-07-08T10:30:54.059Z,26.28
2018-07-08T10:33:23.173Z,26.02
2018-07-08T10:36:02.232Z,25.94
2018-07-08T10:38:31.937Z,26.15
2018-07-08T10:41:01.544Z,26.04
2018-07-08T10:43:30.792Z,26.26
2018-07-08T10:45:59.950Z,26.71
2018-07-08T10:48:29.243Z,26.90
2018-07-08T10:51:05.076Z,27.13
2018-07-08T10:53:34.382Z,27.12
2018-07-08T10:56:03.471Z,26.90
2018-07-08T10:58:32.662Z,26.95
2018-07-08T11:01:02.582Z,27.16
2018-07-08T11:03:31.793Z,26.82
2018-07-08T11:06:00.894Z,26.94
2018-07-08T11:08:30.090Z,26.79
2018-07-08T11:10:59.378Z,26.89
2018-07-08T11:13:28.662Z,27.32
2018-07-08T11:15:58.812Z,27.62
2018-07-08T11:18:28.174Z,27.71
2018-07-08T11:20:57.414Z,27.29
2018-07-08T11:23:26.514Z,27.17
2018-07-08T11:25:55.581Z,27.15
2018-07-08T11:28:24.705Z,27.28
2018-07-08T11:30:53.908Z,27.45
2018-07-08T11:33:23.583Z,27.73
2018-07-08T11:35:52.629Z,27.60
2018-07-08T11:38:21.789Z,27.40
2018-07-08T11:40:50.896Z,27.88
2018-07-08T11:43:20.009Z,27.73
2018-07-08T11:45:49.496Z,27.89
2018-07-08T11:48:18.682Z,27.76
2018-07-08T11:50:47.869Z,27.96
2018-07-08T11:53:16.961Z,28.10
2018-07-08T11:55:46.111Z,28.08
2018-07-08T11:58:15.256Z,28.04
2018-07-08T12:00:44.450Z,28.27
2018-07-08T12:03:14.960Z,28.20
2018-07-08T12:05:44.073Z,28.30
2018-07-08T12:08:13.229Z,28.43
2018-07-08T12:10:43.393Z,28.60
2018-07-08T12:13:12.479Z,28.53
2018-07-08T12:15:42.187Z,28.48
2018-07-08T12:18:11.989Z,28.64
2018-07-08T12:20:41.206Z,29.12
2018-07-08T12:23:10.447Z,28.88
2018-07-08T12:25:39.594Z,28.61
2018-07-08T12:28:08.792Z,28.71
2018-07-08T12:30:38.192Z,28.87
2018-07-08T12:33:07.489Z,29.42
2018-07-08T12:35:36.638Z,29.66
2018-07-08T12:38:05.799Z,29.65
2018-07-08T12:40:34.958Z,29.54
2018-07-08T12:43:04.165Z,29.40
2018-07-08T12:45:33.334Z,29.60
2018-07-08T12:48:02.501Z,29.75
2018-07-08T12:50:31.569Z,29.96
2018-07-08T12:53:00.760Z,29.94
2018-07-08T12:55:29.932Z,29.29
2018-07-08T12:57:59.182Z,29.75
2018-07-08T13:00:30.308Z,30.18
2018-07-08T13:02:59.835Z,30.29
2018-07-08T13:05:29.006Z,30.61
2018-07-08T13:07:58.233Z,30.66
2018-07-08T13:10:27.408Z,30.95
2018-07-08T13:12:56.574Z,30.72
2018-07-08T13:15:25.730Z,30.88
2018-07-08T13:17:54.834Z,30.94
2018-07-08T13:20:24.030Z,30.97
2018-07-08T13:22:53.268Z,30.70
2018-07-08T13:25:22.414Z,30.64
2018-07-08T13:27:51.519Z,30.30
2018-07-08T13:30:20.610Z,30.73
2018-07-08T13:32:49.809Z,31.09
2018-07-08T13:35:18.931Z,31.56
2018-07-08T13:37:48.426Z,30.96
2018-07-08T13:40:17.643Z,31.17
2018-07-08T13:42:46.750Z,31.69
2018-07-08T13:45:15.822Z,31.86
2018-07-08T13:47:44.980Z,31.76
2018-07-08T13:50:14.176Z,31.53
2018-07-08T13:52:43.245Z,31.53
2018-07-08T13:55:12.442Z,31.82
2018-07-08T13:57:41.526Z,32.28
2018-07-08T14:00:11.477Z,32.31
2018-07-08T14:02:40.577Z,32.81
2018-07-08T14:05:09.715Z,32.23
2018-07-08T14:07:38.870Z,32.00
2018-07-08T14:10:08.093Z,32.14
2018-07-08T14:12:37.245Z,31.88
2018-07-08T14:15:06.405Z,31.97
2018-07-08T14:17:35.542Z,31.91
2018-07-08T14:20:05.186Z,31.98
2018-07-08T14:22:34.325Z,31.73
2018-07-08T14:25:03.527Z,32.14
2018-07-08T14:27:32.802Z,31.99
2018-07-08T14:30:01.946Z,32.77
2018-07-08T14:32:31.099Z,33.22
2018-07-08T14:35:00.306Z,33.60
2018-07-08T14:37:29.491Z,33.90
2018-07-08T14:39:58.849Z,33.86
2018-07-08T14:42:28.057Z,33.57
2018-07-08T14:44:57.178Z,33.95
2018-07-08T14:47:26.459Z,34.17
2018-07-08T14:49:55.695Z,34.08
2018-07-08T14:52:24.855Z,33.43
2018-07-08T14:54:54.073Z,32.90
2018-07-08T14:57:24.099Z,32.69
2018-07-08T14:59:53.202Z,32.63
2018-07-08T15:02:22.347Z,33.27
2018-07-08T15:04:51.432Z,34.11
2018-07-08T15:07:20.631Z,33.50
2018-07-08T15:09:49.871Z,32.80
2018-07-08T15:12:18.932Z,33.29
2018-07-08T15:14:47.988Z,34.16
2018-07-08T15:17:17.259Z,34.40
2018-07-08T15:19:46.372Z,34.10
2018-07-08T15:22:15.481Z,33.67
2018-07-08T15:24:44.667Z,33.83
2018-07-08T15:27:14.155Z,33.79
2018-07-08T15:29:43.357Z,34.32
2018-07-08T15:32:12.507Z,33.97
2018-07-08T15:34:42.949Z,34.28
2018-07-08T15:37:12.136Z,33.96
2018-07-08T15:39:41.340Z,33.88
2018-07-08T15:42:10.732Z,34.84
2018-07-08T15:44:39.837Z,35.05
2018-07-08T15:47:09.011Z,34.46
2018-07-08T15:49:38.148Z,34.35
2018-07-08T15:52:07.247Z,34.44
2018-07-08T15:54:36.509Z,35.10
2018-07-08T15:57:05.679Z,35.12
2018-07-08T15:59:34.791Z,35.43
2018-07-08T16:02:03.846Z,35.83
2018-07-08T16:04:34.016Z,36.42
2018-07-08T16:07:03.149Z,36.51
2018-07-08T16:09:32.348Z,36.77
2018-07-08T16:12:02.983Z,36.29
2018-07-08T16:14:32.301Z,35.28
2018-07-08T16:17:01.459Z,35.36
2018-07-08T16:19:30.599Z,35.52
2018-07-08T16:22:00.698Z,35.34
2018-07-08T16:24:30.276Z,35.77
2018-07-08T16:26:59.360Z,36.50
2018-07-08T16:29:28.533Z,36.36
2018-07-08T16:31:57.770Z,35.54
2018-07-08T16:34:27.092Z,34.87
2018-07-08T16:36:56.294Z,34.34
2018-07-08T16:39:25.510Z,34.22
2018-07-08T16:41:54.734Z,34.98
2018-07-08T16:44:23.899Z,35.30
2018-07-08T16:46:53.070Z,35.70
2018-07-08T16:49:22.287Z,35.93
2018-07-08T16:51:51.544Z,35.77
2018-07-08T16:54:20.655Z,35.43
2018-07-08T16:56:50.472Z,35.25
2018-07-08T16:59:19.739Z,35.53
2018-07-08T17:01:50.006Z,35.64
2018-07-08T17:04:19.415Z,34.94
2018-07-08T17:06:48.514Z,35.21
2018-07-08T17:09:18.512Z,35.31
2018-07-08T17:11:47.709Z,34.63
2018-07-08T17:14:17.675Z,33.91
2018-07-08T17:16:47.234Z,33.17
2018-07-08T17:19:16.291Z,32.83
2018-07-08T17:21:45.455Z,32.41
2018-07-08T17:24:14.695Z,31.93
2018-07-08T17:26:43.843Z,31.64
2018-07-08T17:29:13.069Z,31.41
2018-07-08T17:31:42.224Z,30.86
2018-07-08T17:34:11.506Z,30.65
2018-07-08T17:36:41.049Z,30.54
2018-07-08T17:39:10.246Z,30.52
2018-07-08T17:41:39.453Z,30.64
2018-07-08T17:44:09.342Z,30.95
2018-07-08T17:46:38.673Z,30.52
2018-07-08T17:49:07.870Z,30.51
2018-07-08T17:51:38.173Z,30.11
2018-07-08T17:54:07.316Z,29.76
2018-07-08T17:56:37.258Z,29.62
2018-07-08T17:59:07.397Z,29.41
2018-07-08T18:01:36.499Z,29.52
2018-07-08T18:04:05.862Z,29.75
2018-07-08T18:06:35.670Z,30.12
2018-07-08T18:09:05.853Z,30.45
2018-07-08T18:11:35.721Z,29.48
2018-07-08T18:14:05.359Z,29.86
2018-07-08T18:16:34.521Z,29.74
2018-07-08T18:19:03.809Z,29.56
2018-07-08T18:21:33.165Z,29.44
2018-07-08T18:24:02.337Z,29.34
2018-07-08T18:26:32.557Z,29.63
2018-07-08T18:29:03.377Z,29.62
2018-07-08T18:31:34.386Z,29.39
2018-07-08T18:34:03.753Z,29.21
2018-07-08T18:36:32.971Z,29.06
2018-07-08T18:39:02.181Z,29.06
2018-07-08T18:41:31.613Z,29.01
2018-07-08T18:44:00.987Z,29.08
2018-07-08T18:46:30.439Z,28.80
2018-07-08T18:48:59.635Z,28.65
2018-07-08T18:51:28.810Z,28.56
2018-07-08T18:53:58.223Z,28.48
2018-07-08T18:56:27.629Z,28.38
2018-07-08T18:58:57.074Z,28.13
2018-07-08T19:01:26.225Z,28.10
2018-07-08T19:03:55.357Z,28.16
2018-07-08T19:06:25.487Z,28.04
2018-07-08T19:08:54.756Z,27.91
2018-07-08T19:11:24.646Z,27.98
2018-07-08T19:13:53.745Z,27.84
2018-07-08T19:16:22.947Z,27.74
2018-07-08T19:18:52.093Z,27.66
2018-07-08T19:21:21.316Z,27.52
2018-07-08T19:23:50.471Z,27.40
2018-07-08T19:26:19.645Z,27.40
2018-07-08T19:28:48.768Z,27.28
2018-07-08T19:31:18.547Z,26.87
2018-07-08T19:33:47.661Z,27.12
2018-07-08T19:36:16.838Z,27.05
2018-07-08T19:38:46.069Z,27.00
2018-07-08T19:41:15.257Z,26.93
2018-07-08T19:43:44.509Z,26.89
2018-07-08T19:46:13.649Z,26.82
2018-07-08T19:48:43.314Z,26.68
2018-07-08T19:51:12.822Z,26.72
2018-07-08T19:53:42.026Z,26.72
2018-07-08T19:56:12.143Z,26.71
2018-07-08T19:58:41.414Z,26.96
2018-07-08T20:01:11.523Z,26.76
2018-07-08T20:03:41.121Z,26.61
2018-07-08T20:06:10.233Z,26.88
2018-07-08T20:08:39.408Z,27.08
2018-07-08T20:11:08.861Z,27.07
2018-07-08T20:13:38.167Z,27.04
2018-07-08T20:16:07.282Z,26.87
2018-07-08T20:18:36.458Z,27.00
2018-07-08T20:21:05.783Z,26.88
2018-07-08T20:23:35.450Z,26.76
2018-07-08T20:26:04.767Z,26.64
2018-07-08T20:28:34.252Z,26.43
2018-07-08T20:31:03.401Z,26.24
2018-07-08T20:33:33.550Z,25.91
2018-07-08T20:36:03.706Z,25.80
2018-07-08T20:38:32.910Z,25.86
2018-07-08T20:41:02.266Z,25.76
2018-07-08T20:43:31.439Z,25.74
2018-07-08T20:46:00.650Z,25.76
2018-07-08T20:48:29.802Z,25.65
2018-07-08T20:50:58.952Z,25.64
2018-07-08T20:53:28.901Z,25.61
2018-07-08T20:55:58.260Z,25.49
2018-07-08T20:58:28.368Z,25.36
2018-07-08T21:00:57.490Z,25.19
2018-07-08T21:03:27.063Z,25.09
2018-07-08T21:05:56.322Z,24.96
2018-07-08T21:08:25.546Z,24.86
2018-07-08T21:10:54.740Z,24.71
2018-07-08T21:13:23.771Z,24.46
2018-07-08T21:15:52.859Z,24.39
2018-07-08T21:18:22.154Z,24.34
2018-07-08T21:20:51.267Z,24.19
2018-07-08T21:23:20.362Z,24.08
2018-07-08T21:25:49.506Z,23.98
2018-07-08T21:28:18.686Z,23.83
2018-07-08T21:30:47.890Z,23.86
2018-07-08T21:33:17.051Z,23.83
2018-07-08T21:35:46.202Z,23.79
2018-07-08T21:38:15.310Z,23.54
2018-07-08T21:40:44.442Z,23.79
2018-07-08T21:43:13.633Z,24.34
2018-07-08T21:45:42.747Z,24.72
2018-07-08T21:48:11.869Z,24.97
2018-07-08T21:50:41.149Z,25.08
2018-07-08T21:53:10.226Z,25.10
2018-07-08T21:55:39.358Z,25.11
2018-07-08T21:58:08.519Z,25.10
2018-07-08T22:00:45.442Z,24.89
2018-07-08T22:03:14.699Z,24.51
2018-07-08T22:05:43.888Z,24.63
2018-07-08T22:08:13.048Z,23.98
2018-07-08T22:10:42.282Z,23.46
2018-07-08T22:13:11.582Z,22.85
2018-07-08T22:15:40.841Z,22.58
2018-07-08T22:18:10.063Z,22.64
2018-07-08T22:20:39.190Z,22.50
2018-07-08T22:23:08.407Z,22.46
2018-07-08T22:25:37.585Z,22.30
2018-07-08T22:28:07.876Z,22.16
2018-07-08T22:30:37.065Z,22.11
2018-07-08T22:33:06.278Z,21.97
2018-07-08T22:35:35.383Z,22.03
2018-07-08T22:38:04.702Z,21.75
2018-07-08T22:40:34.037Z,21.29
2018-07-08T22:43:03.420Z,21.14
2018-07-08T22:45:32.933Z,21.09
2018-07-08T22:48:02.794Z,21.14
2018-07-08T22:50:32.299Z,21.20
2018-07-08T22:53:01.462Z,21.00
2018-07-08T22:55:30.560Z,20.99
2018-07-08T22:57:59.762Z,21.20
2018-07-08T23:00:40.199Z,21.39
2018-07-08T23:03:20.612Z,21.22
2018-07-08T23:05:49.742Z,21.17
2018-07-08T23:08:18.893Z,21.35
2018-07-08T23:10:48.036Z,21.39
2018-07-08T23:13:17.218Z,21.24
2018-07-08T23:15:46.437Z,21.14
2018-07-08T23:18:15.532Z,21.14
2018-07-08T23:20:44.636Z,20.96
2018-07-08T23:23:13.859Z,20.85
2018-07-08T23:25:43.021Z,20.76
2018-07-08T23:28:12.126Z,20.79
2018-07-08T23:30:41.291Z,20.75
2018-07-08T23:33:10.478Z,20.63
2018-07-08T23:35:39.585Z,20.60
2018-07-08T23:38:08.737Z,20.65
2018-07-08T23:40:38.773Z,20.57
2018-07-08T23:43:08.276Z,20.56
2018-07-08T23:45:37.457Z,20.43
2018-07-08T23:48:06.548Z,20.37
2018-07-08T23:50:35.608Z,20.46
2018-07-08T23:53:04.801Z,19.96
2018-07-08T23:55:34.175Z,20.17
2018-07-08T23:58:03.369Z,20.29
